| time (UTC) | temp F | wind direction | speed MPH | gust MPH | rain 1hr in | rain 24hr in | rain mn in | humidity % | barometer mb |
| 20260510222454 | 51 | 238 | 0.0 | 5.0 | 0.00 | 0.25 | 0.25 | 79 | 1012.0 |
| 20260510220953 | 51 | 136 | 2.0 | 6.0 | 0.00 | 0.26 | 0.26 | 80 | 1012.0 |
| 20260510215454 | 51 | 153 | 6.0 | 3.0 | 0.00 | 0.26 | 0.26 | 81 | 1011.9 |
| 20260510213955 | 52 | 240 | 0.0 | 3.0 | 0.00 | 0.26 | 0.26 | 80 | 1011.8 |
| 20260510212453 | 52 | 240 | 1.0 | 3.0 | 0.00 | 0.26 | 0.26 | 79 | 1011.7 |
| 20260510210954 | 53 | 242 | 0.0 | 0.0 | 0.00 | 0.26 | 0.26 | 79 | 1011.6 |
| 20260510203954 | 53 | 243 | 0.0 | 0.0 | 0.00 | 0.26 | 0.26 | 78 | 1011.4 |
| 20260510202454 | 55 | 245 | 0.0 | 0.0 | 0.00 | 0.26 | 0.26 | 77 | 1011.1 |
| 20260510200955 | 55 | 245 | 0.0 | 0.0 | 0.00 | 0.26 | 0.26 | 76 | 1011.0 |
| 20260510195457 | 55 | 239 | 0.0 | 3.0 | 0.00 | 0.26 | 0.26 | 74 | 1010.7 |
| 20260510193958 | 55 | 214 | 0.0 | 0.0 | 0.00 | 0.26 | 0.26 | 75 | 1010.5 |
| 20260510192458 | 55 | 205 | 0.0 | 12.0 | 0.00 | 0.26 | 0.26 | 73 | 1010.4 |
| 20260510190954 | 57 | 205 | 5.0 | 9.0 | 0.00 | 0.26 | 0.26 | 71 | 1010.4 |
| 20260510185454 | 59 | 253 | 4.0 | 9.0 | 0.00 | 0.26 | 0.26 | 59 | 1010.1 |
| 20260510182454 | 60 | 255 | 7.0 | 7.0 | 0.00 | 0.26 | 0.26 | 58 | 1009.9 |
| 20260510180954 | 60 | 266 | 5.0 | 9.0 | 0.00 | 0.26 | 0.26 | 60 | 1009.7 |
| 20260510175455 | 60 | 278 | 4.0 | 11.0 | 0.00 | 0.26 | 0.26 | 62 | 1009.6 |
| 20260510173954 | 59 | 265 | 10.0 | 13.0 | 0.00 | 0.26 | 0.26 | 61 | 1009.6 |
| 20260510172454 | 60 | 262 | 8.0 | 12.0 | 0.00 | 0.26 | 0.26 | 59 | 1009.6 |
| 20260510170955 | 59 | 254 | 9.0 | 17.0 | 0.00 | 0.26 | 0.26 | 59 | 1009.6 |
| 20260510165453 | 59 | 238 | 11.0 | 18.0 | 0.00 | 0.26 | 0.26 | 58 | 1009.6 |
| 20260510163954 | 60 | 254 | 7.0 | 15.0 | 0.00 | 0.26 | 0.26 | 58 | 1009.6 |
| 20260510162454 | 59 | 277 | 5.0 | 18.0 | 0.00 | 0.26 | 0.26 | 63 | 1009.6 |
| 20260510160955 | 58 | 242 | 8.0 | 18.0 | 0.00 | 0.26 | 0.26 | 66 | 1009.4 |
| 20260510155454 | 57 | 250 | 7.0 | 24.0 | 0.00 | 0.26 | 0.26 | 69 | 1009.4 |
| 20260510153954 | 59 | 295 | 6.0 | 14.0 | 0.00 | 0.26 | 0.26 | 70 | 1009.0 |
| 20260510150954 | 57 | 203 | 8.0 | 19.0 | 0.00 | 0.26 | 0.26 | 76 | 1009.2 |
| 20260510145453 | 57 | 215 | 8.0 | 21.0 | 0.00 | 0.26 | 0.26 | 77 | 1009.3 |
| 20260510143954 | 57 | 255 | 9.0 | 16.0 | 0.00 | 0.26 | 0.26 | 74 | 1009.3 |
| 20260510142455 | 56 | 221 | 7.0 | 14.0 | 0.00 | 0.26 | 0.26 | 81 | 1009.5 |
| 20260510140954 | 56 | 210 | 6.0 | 14.0 | 0.00 | 0.26 | 0.26 | 83 | 1009.6 |
| 20260510135454 | 53 | 245 | 4.0 | 13.0 | 0.00 | 0.26 | 0.26 | 76 | 1009.6 |
| 20260510133953 | 51 | 227 | 3.0 | 14.0 | 0.00 | 0.26 | 0.26 | 76 | 1009.9 |
| 20260510132454 | 51 | 219 | 7.0 | 14.0 | 0.00 | 0.26 | 0.26 | 75 | 1009.8 |
| 20260510130955 | 51 | 79 | 1.0 | 14.0 | 0.00 | 0.26 | 0.26 | 76 | 1009.9 |
| 20260510125453 | 51 | 153 | 9.0 | 14.0 | 0.00 | 0.26 | 0.26 | 76 | 1010.0 |
| 20260510123954 | 50 | 225 | 6.0 | 18.0 | 0.00 | 0.26 | 0.26 | 75 | 1010.3 |
| 20260510122455 | 50 | 235 | 8.0 | 11.0 | 0.00 | 0.26 | 0.26 | 75 | 1010.5 |
| 20260510120956 | 50 | 226 | 5.0 | 13.0 | 0.00 | 0.26 | 0.26 | 76 | 1010.7 |
| 20260510120039 | 49 | 250 | 4.0 | 12.0 | 0.00 | 0.26 | 0.26 | 76 | 1010.6 |
| 20260510114538 | 49 | 257 | 0.0 | 10.0 | 0.00 | 0.26 | 0.26 | 77 | 1010.8 |
| 20260510113037 | 49 | 202 | 1.0 | 9.0 | 0.00 | 0.26 | 0.26 | 77 | 1010.9 |
| 20260510111538 | 48 | 278 | 4.0 | 7.0 | 0.01 | 0.26 | 0.26 | 77 | 1010.9 |
| 20260510110038 | 47 | 248 | 3.0 | 7.0 | 0.02 | 0.26 | 0.26 | 77 | 1010.8 |
| 20260510104538 | 47 | 230 | 5.0 | 7.0 | 0.03 | 0.26 | 0.26 | 79 | 1010.7 |
| 20260510103038 | 46 | 232 | 0.0 | 10.0 | 0.10 | 0.26 | 0.26 | 79 | 1011.0 |
| 20260510101538 | 46 | 267 | 6.0 | 19.0 | 0.17 | 0.25 | 0.25 | 79 | 1011.4 |
| 20260510100039 | 47 | 271 | 11.0 | 16.0 | 0.21 | 0.24 | 0.24 | 78 | 1011.5 |
| 20260510095158 | 47 | 255 | 8.0 | 17.0 | 0.20 | 0.23 | 0.23 | 78 | 1011.5 |
| 20260510093658 | 47 | 199 | 2.0 | 16.0 | 0.18 | 0.20 | 0.20 | 78 | 1011.1 |
| 20260510092158 | 48 | 214 | 5.0 | 11.0 | 0.06 | 0.09 | 0.09 | 77 | 1010.9 |
| 20260510085158 | 50 | 289 | 3.0 | 8.0 | 0.00 | 0.02 | 0.02 | 78 | 1009.9 |
| 20260510083658 | 50 | 204 | 2.0 | 6.0 | 0.00 | 0.02 | 0.02 | 78 | 1009.8 |
| 20260510082158 | 50 | 243 | 0.0 | 10.0 | 0.00 | 0.02 | 0.02 | 78 | 1009.8 |
| 20260510080659 | 50 | 152 | 5.0 | 8.0 | 0.00 | 0.02 | 0.02 | 77 | 1009.8 |
| 20260510075157 | 50 | 146 | 4.0 | 4.0 | 0.00 | 0.02 | 0.02 | 78 | 1009.6 |
| 20260510073658 | 50 | 92 | 2.0 | 5.0 | 0.00 | 0.02 | 0.02 | 78 | 1009.7 |
| 20260510072158 | 49 | 83 | 2.0 | 5.0 | 0.00 | 0.02 | 0.02 | 78 | 1009.7 |
| 20260510070659 | 49 | 136 | 1.0 | 5.0 | 0.00 | 0.02 | 0.02 | 78 | 1009.7 |
| 20260510065158 | 49 | 155 | 1.0 | 4.0 | 0.00 | 0.02 | 0.02 | 78 | 1009.8 |
| 20260510063658 | 49 | 151 | 0.0 | 5.0 | 0.00 | 0.02 | 0.02 | 78 | 1009.4 |
| 20260510062200 | 49 | 146 | 0.0 | 5.0 | 0.00 | 0.02 | 0.02 | 79 | 1009.4 |
| 20260510060657 | 48 | 129 | 3.0 | 5.0 | 0.00 | 0.02 | 0.02 | 79 | 1009.6 |
| 20260510055159 | 48 | 160 | 3.0 | 4.0 | 0.00 | 0.02 | 0.02 | 79 | 1009.6 |
| 20260510053657 | 48 | 158 | 3.0 | 5.0 | 0.00 | 0.02 | 0.02 | 79 | 1009.4 |
| 20260510052159 | 48 | 282 | 0.0 | 6.0 | 0.00 | 0.02 | 0.02 | 79 | 1009.6 |
| 20260510050658 | 48 | 167 | 5.0 | 5.0 | 0.00 | 0.02 | 0.02 | 79 | 1009.5 |
| 20260510045159 | 48 | 155 | 3.0 | 3.0 | 0.00 | 0.02 | 0.02 | 78 | 1009.6 |
| 20260510043657 | 48 | 145 | 0.0 | 5.0 | 0.00 | 0.02 | 0.02 | 78 | 1009.6 |
| 20260510042158 | 48 | 169 | 1.0 | 4.0 | 0.00 | 0.02 | 0.02 | 79 | 1009.7 |
| 20260510040659 | 48 | 173 | 1.0 | 4.0 | 0.00 | 0.02 | 0.02 | 78 | 1009.7 |
| 20260510035157 | 48 | 190 | 1.0 | 5.0 | 0.00 | 0.02 | 0.02 | 78 | 1009.9 |
| 20260510033658 | 48 | 152 | 3.0 | 4.0 | 0.00 | 0.02 | 0.02 | 78 | 1010.0 |
| 20260510032158 | 48 | 221 | 0.0 | 5.0 | 0.00 | 0.02 | 0.02 | 78 | 1010.1 |
| 20260510030659 | 48 | 222 | 0.0 | 7.0 | 0.00 | 0.02 | 0.02 | 78 | 1010.1 |
| 20260510023659 | 48 | 187 | 2.0 | 7.0 | 0.00 | 0.02 | 0.02 | 78 | 1010.1 |
| 20260510022157 | 48 | 135 | 2.0 | 10.0 | 0.00 | 0.02 | 0.02 | 78 | 1010.2 |
| 20260510020658 | 48 | 189 | 3.0 | 7.0 | 0.00 | 0.02 | 0.02 | 78 | 1010.2 |
| 20260510015158 | 48 | 244 | 0.0 | 6.0 | 0.00 | 0.02 | 0.02 | 77 | 1010.2 |
| 20260510012157 | 48 | 139 | 3.0 | 10.0 | 0.00 | 0.02 | 0.02 | 77 | 1010.3 |
| 20260510010657 | 48 | 148 | 3.0 | 7.0 | 0.00 | 0.02 | 0.02 | 77 | 1010.4 |
| 20260510005158 | 48 | 173 | 5.0 | 5.0 | 0.01 | 0.02 | 0.02 | 77 | 1010.5 |
| 20260510003658 | 48 | 161 | 2.0 | 4.0 | 0.01 | 0.02 | 0.02 | 77 | 1010.6 |
| 20260510002159 | 48 | 155 | 0.0 | 5.0 | 0.02 | 0.02 | 0.02 | 76 | 1010.5 |
| 20260510000657 | 48 | 150 | 2.0 | 6.0 | 0.02 | 0.02 | 0.02 | 76 | 1010.6 |
| 20260509235159 | 49 | 132 | 0.0 | 5.0 | 0.02 | 0.02 | 0.02 | 76 | 1010.4 |
| 20260509233658 | 49 | 150 | 3.0 | 4.0 | 0.02 | 0.02 | 0.02 | 76 | 1010.4 |
| 20260509232158 | 49 | 155 | 0.0 | 1.0 | 0.01 | 0.01 | 0.01 | 76 | 1010.6 |
| 20260509230658 | 48 | 156 | 0.0 | 6.0 | 0.00 | 0.00 | 0.00 | 75 | 1010.7 |
| 20260509225157 | 49 | 257 | 0.0 | 4.0 | 0.02 | 0.11 | 0.11 | 75 | 1010.6 |
| 20260509223659 | 48 | 276 | 1.0 | 0.0 | 0.02 | 0.10 | 0.10 | 75 | 1010.3 |